LFMD/CEQ METAR and TAF weather

Enter ICAO airport designator
Station Type Date Time Source
LFMD METAR 2020/01/24 03:00 UTC NOAA

LFMD 240300Z AUTO 36003KT 330V040 9999 OVC054 07/05 Q1025 NOSIG


Station Type Date Time Source
LFMD Decoded METAR 2020/01/24 03:00 UTC NOAA

Cannes, France (LFMD) 43-33N 006-57E 9M
Jan 23, 2020 - 10:00 PM EST / 2020.01.24 0300 UTC
Wind: from the N (360 degrees) at 3 MPH (3 KT) (direction variable):0
Visibility: greater than 7 mile(s):0
Sky conditions: overcast
Temperature: 44 F (7 C)
Dew Point: 41 F (5 C)
Relative Humidity: 87%
Pressure (altimeter): 30.27 in. Hg (1025 hPa)
ob: LFMD 240300Z AUTO 36003KT 330V040 9999 OVC054 07/05 Q1025 NOSIG
cycle: 3

Station Type Date Time Source
LFMD TAF 2020/01/24 03:21 UTC NOAA

TAF LFMD 240200Z 2403/2503 02004KT 9999 BKN080
TEMPO 2408/2503 06015G30KT 3000 RA BKN014

Example: see airport list